Time;durP1;ratioP1;P1;durP2;ratioP2;P2;SDS_P1;SDS_P2;PMS_P1;PMS_P2;Temp;Humidity;BMP_temperature;BMP_pressure;BME280_temperature;BME280_humidity;BME280_pressure;Samples;Min_cycle;Max_cycle;Signal;HPM_P1;HPM_P2
2023/04/01 00:01:19;;;;;;;2.57;1.40;;;;;;;6.37;100.00;94780.22;5046666;28;20490;-77
2023/04/01 00:03:46;;;;;;;1.23;1.10;;;;;;;6.29;100.00;94779.28;5086118;28;20926;-77
2023/04/01 00:06:15;;;;;;;2.37;1.30;;;;;;;6.54;100.00;94808.75;5061879;28;20439;-76
2023/04/01 00:08:41;;;;;;;2.80;0.93;;;;;;;6.11;100.00;94747.34;5057813;28;20448;-76
2023/04/01 00:11:08;;;;;;;2.17;1.50;;;;;;;6.48;100.00;94799.63;5060240;28;20969;-76
2023/04/01 00:13:35;;;;;;;2.20;0.90;;;;;;;6.36;100.00;94781.31;5070163;28;20478;-76
2023/04/01 00:16:03;;;;;;;1.60;1.20;;;;;;;6.27;100.00;94754.47;5062271;28;20478;-76
2023/04/01 00:18:47;;;;;;;1.63;0.87;;;;;;;6.42;100.00;94772.88;5045324;28;20448;-76
2023/04/01 00:21:14;;;;;;;1.40;1.03;;;;;;;6.36;100.00;94757.69;5072202;28;20441;-76
2023/04/01 00:23:41;;;;;;;6.30;1.53;;;;;;;6.50;100.00;94784.28;5065907;28;20428;-76
2023/04/01 00:26:08;;;;;;;3.73;1.53;;;;;;;6.47;100.00;94779.72;5068333;28;20471;-76
2023/04/01 00:28:35;;;;;;;1.80;1.00;;;;;;;6.42;100.00;94774.72;5083626;28;20417;-77
2023/04/01 00:31:10;;;;;;;4.20;1.73;;;;;;;6.33;100.00;94759.13;5058285;28;20976;-77
2023/04/01 00:33:37;;;;;;;2.20;1.40;;;;;;;6.56;100.00;94790.06;5064232;28;20940;-76
2023/04/01 00:36:13;;;;;;;3.17;1.20;;;;;;;6.52;100.00;94790.72;5064284;28;20448;-76
2023/04/01 00:38:42;;;;;;;1.47;1.37;;;;;;;6.38;100.00;94769.38;5046009;28;20842;-76
2023/04/01 00:41:14;;;;;;;4.80;1.10;;;;;;;6.55;100.00;94788.56;5071903;28;20526;-77
2023/04/01 00:43:42;;;;;;;3.43;1.20;;;;;;;6.22;100.00;94745.75;5057839;28;20904;-76
2023/04/01 00:46:09;;;;;;;3.97;1.67;;;;;;;6.31;100.00;94760.56;5027910;28;20506;-77
2023/04/01 00:48:39;;;;;;;1.87;1.30;;;;;;;6.46;100.00;94783.44;5040314;28;21010;-76
2023/04/01 00:51:10;;;;;;;2.20;1.03;;;;;;;6.40;100.00;94782.16;5058934;28;20555;-77
2023/04/01 00:53:44;;;;;;;1.80;0.90;;;;;;;6.47;100.00;94788.38;5043864;28;20450;-77
2023/04/01 00:56:22;;;;;;;3.47;1.50;;;;;;;6.32;100.00;94770.72;5059857;28;20436;-76
2023/04/01 00:58:54;;;;;;;5.33;1.33;;;;;;;6.29;100.00;94765.41;5040562;28;20986;-77
2023/04/01 01:01:24;;;;;;;5.87;1.60;;;;;;;5.79;100.00;94690.66;5062263;28;20869;-77
2023/04/01 01:03:51;;;;;;;2.30;1.50;;;;;;;6.25;100.00;94752.16;5062203;28;20425;-77
2023/04/01 01:06:33;;;;;;;3.60;1.77;;;;;;;6.50;100.00;94786.91;5029460;28;20460;-77
2023/04/01 01:09:11;;;;;;;3.37;1.50;;;;;;;6.49;100.00;94791.41;5058064;28;20498;-77
2023/04/01 01:11:47;;;;;;;4.40;1.90;;;;;;;6.37;100.00;94770.47;5058468;28;20448;-76
2023/04/01 01:14:23;;;;;;;1.57;1.47;;;;;;;6.21;100.00;94746.09;5067900;28;20431;-77
2023/04/01 01:17:16;;;;;;;4.00;1.47;;;;;;;6.48;100.00;94786.50;5047046;28;20903;-77
2023/04/01 01:20:01;;;;;;;3.83;1.60;;;;;;;6.50;100.00;94789.53;5059619;28;20523;-77
2023/04/01 01:22:43;;;;;;;8.00;1.43;;;;;;;6.51;100.00;94780.56;5051301;28;20475;-77
2023/04/01 01:25:26;;;;;;;4.20;1.73;;;;;;;6.53;100.00;94788.88;5042819;28;20468;-77
2023/04/01 01:28:20;;;;;;;5.43;2.10;;;;;;;6.37;100.00;94761.84;5075020;28;20967;-77
2023/04/01 01:30:56;;;;;;;3.10;1.63;;;;;;;6.29;100.00;94752.28;5056251;28;20466;-77
2023/04/01 01:33:49;;;;;;;2.70;1.50;;;;;;;5.64;100.00;94652.81;5063071;28;20436;-77
2023/04/01 01:36:18;;;;;;;2.30;1.20;;;;;;;6.25;100.00;94738.28;5076760;28;20846;-78
2023/04/01 01:38:48;;;;;;;2.57;1.33;;;;;;;6.28;100.00;94741.03;5062515;28;20470;-77
2023/04/01 01:41:17;;;;;;;1.43;1.20;;;;;;;6.31;100.00;94748.22;5063418;28;20460;-77
2023/04/01 01:43:48;;;;;;;4.73;1.87;;;;;;;6.52;100.00;94779.47;5063222;28;20482;-77
2023/04/01 01:46:20;;;;;;;1.60;1.00;;;;;;;6.25;100.00;94731.19;5062744;28;20444;-77
2023/04/01 01:48:50;;;;;;;3.17;2.30;;;;;;;6.46;100.00;94763.22;5044269;28;20490;-77
2023/04/01 01:51:19;;;;;;;2.00;1.10;;;;;;;6.44;100.00;94765.41;5080406;28;20452;-77
2023/04/01 01:53:46;;;;;;;2.70;1.20;;;;;;;6.40;100.00;94759.28;5076828;28;20459;-77
2023/04/01 01:56:18;;;;;;;3.10;1.10;;;;;;;6.28;100.00;94741.03;5081814;28;20439;-77
2023/04/01 01:58:48;;;;;;;2.93;1.23;;;;;;;6.15;100.00;94719.34;5049545;28;20491;-77
2023/04/01 02:01:25;;;;;;;3.30;2.13;;;;;;;6.57;100.00;94775.84;5045679;28;20464;-77
2023/04/01 02:03:55;;;;;;;2.70;1.00;;;;;;;6.31;100.00;94739.59;5062614;28;21036;-78
2023/04/01 02:06:25;;;;;;;4.50;1.40;;;;;;;6.61;100.00;94785.31;5055048;28;20489;-77
2023/04/01 02:09:03;;;;;;;1.13;0.93;;;;;;;6.62;100.00;94788.72;5060878;28;20479;-77
2023/04/01 02:11:38;;;;;;;4.10;1.80;;;;;;;6.62;100.00;94784.22;5063376;28;20466;-77
2023/04/01 02:14:16;;;;;;;2.90;1.10;;;;;;;6.50;100.00;94771.94;5072936;28;20436;-77
2023/04/01 02:16:55;;;;;;;1.27;1.10;;;;;;;6.61;100.00;94785.31;5060739;28;20933;-77
2023/04/01 02:19:30;;;;;;;1.00;0.90;;;;;;;6.62;100.00;94778.97;5056640;28;20830;-77
2023/04/01 02:22:01;;;;;;;3.90;1.40;;;;;;;6.61;100.00;94777.44;5066865;28;20546;-77
2023/04/01 02:24:31;;;;;;;1.70;1.10;;;;;;;6.56;100.00;94776.94;5059438;28;20515;-76
2023/04/01 02:26:58;;;;;;;1.90;0.90;;;;;;;6.43;100.00;94745.53;5066741;28;20413;-78
2023/04/01 02:29:27;;;;;;;3.10;1.30;;;;;;;6.67;100.00;94781.34;5049716;28;20444;-77
2023/04/01 02:31:54;;;;;;;11.77;1.53;;;;;;;6.49;100.00;94761.78;5064089;28;20452;-77
2023/04/01 02:34:23;;;;;;;3.83;1.20;;;;;;;6.46;100.00;94765.06;5051750;28;20819;-77
2023/04/01 02:36:51;;;;;;;3.63;1.20;;;;;;;6.26;100.00;94740.56;5078707;28;20827;-77
2023/04/01 02:39:18;;;;;;;7.50;1.10;;;;;;;6.20;100.00;94720.94;5061856;28;21058;-77
2023/04/01 02:41:45;;;;;;;1.67;1.50;;;;;;;6.67;100.00;94797.09;5064990;28;20518;-77
2023/04/01 02:44:14;;;;;;;3.83;1.60;;;;;;;6.69;100.00;94796.78;5035797;28;20466;-77
2023/04/01 02:46:42;;;;;;;4.00;1.23;;;;;;;6.29;100.00;94736.53;5078498;28;20467;-77
2023/04/01 02:49:09;;;;;;;3.97;2.90;;;;;;;6.67;100.00;94798.94;5078033;28;20427;-78
2023/04/01 02:51:36;;;;;;;1.97;1.57;;;;;;;6.59;100.00;94784.13;5062454;28;20528;-77
2023/04/01 02:54:03;;;;;;;1.60;1.50;;;;;;;6.57;100.00;94789.72;5061329;28;20477;-78
2023/04/01 02:56:30;;;;;;;2.13;1.20;;;;;;;6.17;100.00;94732.13;5049528;28;20485;-77
2023/04/01 02:58:56;;;;;;;2.07;1.33;;;;;;;6.59;100.00;94789.41;5060685;28;20463;-78
2023/04/01 03:01:23;;;;;;;2.30;1.10;;;;;;;6.55;100.00;94789.31;5066351;28;20505;-77
2023/04/01 03:03:50;;;;;;;1.13;1.03;;;;;;;6.68;100.00;94814.41;5048534;28;20457;-77
2023/04/01 03:06:17;;;;;;;6.60;1.40;;;;;;;6.69;100.00;94809.91;5061383;28;20451;-77
2023/04/01 03:08:44;;;;;;;2.70;1.37;;;;;;;6.48;100.00;94784.63;5061332;28;20428;-77
2023/04/01 03:11:12;;;;;;;2.67;1.23;;;;;;;6.67;100.00;94817.34;5049647;28;20452;-77
2023/04/01 03:13:38;;;;;;;3.93;1.60;;;;;;;6.55;100.00;94786.69;5043549;28;20452;-77
2023/04/01 03:16:06;;;;;;;2.70;2.13;;;;;;;6.75;100.00;94814.56;5037987;28;20948;-77
2023/04/01 03:18:34;;;;;;;2.67;1.00;;;;;;;6.52;100.00;94782.84;5057178;28;20460;-77
2023/04/01 03:21:19;;;;;;;9.33;1.47;;;;;;;6.61;100.00;94795.06;5051321;28;20498;-77
2023/04/01 03:23:46;;;;;;;1.53;0.97;;;;;;;6.62;100.00;94791.34;5061315;28;20433;-77
2023/04/01 03:26:13;;;;;;;3.40;1.00;;;;;;;6.55;100.00;94799.81;5053745;28;20536;-77
2023/04/01 03:28:40;;;;;;;3.10;1.10;;;;;;;6.61;100.00;94806.31;5048683;28;20505;-77
2023/04/01 03:31:07;;;;;;;3.97;1.60;;;;;;;6.68;100.00;94818.88;5045677;28;20464;-78
2023/04/01 03:33:40;;;;;;;3.10;1.20;;;;;;;6.61;100.00;94798.44;5066804;28;20487;-77
2023/04/01 03:36:08;;;;;;;2.50;1.40;;;;;;;6.61;100.00;94802.94;5035188;28;20446;-77
2023/04/01 03:38:35;;;;;;;5.67;1.07;;;;;;;6.08;100.00;94721.78;5079086;28;20466;-77
2023/04/01 03:41:02;;;;;;;2.03;1.27;;;;;;;6.77;100.00;94829.97;5078413;28;20495;-77
2023/04/01 03:43:30;;;;;;;4.97;1.10;;;;;;;6.64;100.00;94821.41;5050569;28;20433;-77
2023/04/01 03:45:58;;;;;;;1.27;0.80;;;;;;;6.56;100.00;94803.97;5057341;28;20572;-77
2023/04/01 03:48:25;;;;;;;1.60;1.50;;;;;;;6.43;100.00;94786.75;5058862;28;20425;-77
2023/04/01 03:50:52;;;;;;;5.87;1.40;;;;;;;6.51;100.00;94804.19;5075128;28;21038;-77
2023/04/01 03:53:20;;;;;;;2.83;1.40;;;;;;;6.16;100.00;94752.34;5063924;28;20443;-78
2023/04/01 03:55:47;;;;;;;1.10;0.90;;;;;;;6.57;100.00;94809.97;5077522;28;20940;-77
2023/04/01 03:58:15;;;;;;;4.80;1.33;;;;;;;6.43;100.00;94792.78;5064733;28;20885;-78
2023/04/01 04:00:41;;;;;;;1.10;1.00;;;;;;;6.46;100.00;94802.59;5060525;28;21135;-77
2023/04/01 04:03:09;;;;;;;3.13;1.23;;;;;;;6.55;100.00;94825.31;5051358;28;20455;-77
2023/04/01 04:05:36;;;;;;;5.47;1.60;;;;;;;6.55;100.00;94794.56;5077856;28;20467;-78
2023/04/01 04:08:03;;;;;;;3.40;0.93;;;;;;;6.76;100.00;94831.84;5077822;28;20512;-77
2023/04/01 04:10:30;;;;;;;1.73;1.10;;;;;;;6.56;100.00;94803.19;5053930;28;20444;-78
2023/04/01 04:12:57;;;;;;;3.70;1.10;;;;;;;6.67;100.00;94833.84;5058069;28;20835;-78
2023/04/01 04:15:27;;;;;;;2.40;2.03;;;;;;;6.43;100.00;94789.38;5057533;28;20443;-77
2023/04/01 04:17:53;;;;;;;2.80;0.97;;;;;;;6.63;100.00;94811.25;5057771;28;20817;-77
2023/04/01 04:20:20;;;;;;;2.93;1.43;;;;;;;6.62;100.00;94809.72;5045301;28;20436;-77
2023/04/01 04:22:47;;;;;;;2.13;1.10;;;;;;;6.50;100.00;94797.41;5040119;28;20472;-78
2023/04/01 04:25:14;;;;;;;4.10;1.50;;;;;;;6.44;100.00;94807.41;5045112;28;20468;-77
2023/04/01 04:27:41;;;;;;;8.10;1.33;;;;;;;6.63;100.00;94834.88;5049984;28;20451;-77
2023/04/01 04:30:11;;;;;;;2.83;2.30;;;;;;;6.49;100.00;94812.41;5044995;28;20440;-77
2023/04/01 04:32:38;;;;;;;6.27;1.07;;;;;;;6.46;100.00;94813.09;5070131;28;20977;-77
2023/04/01 04:35:06;;;;;;;1.77;1.40;;;;;;;6.71;100.00;94849.72;5060680;28;20431;-77
2023/04/01 04:37:33;;;;;;;2.77;1.30;;;;;;;6.50;100.00;94818.41;5076803;28;20971;-78
2023/04/01 04:40:00;;;;;;;1.53;0.97;;;;;;;6.68;100.00;94845.91;5076810;28;20490;-78
2023/04/01 04:42:28;;;;;;;1.60;1.27;;;;;;;6.58;100.00;94835.88;5061110;28;20453;-78
2023/04/01 04:44:59;;;;;;;1.73;0.90;;;;;;;6.56;100.00;94829.47;5063154;28;20847;-77
2023/04/01 04:47:26;;;;;;;1.27;0.90;;;;;;;6.40;100.00;94803.91;5043583;28;20449;-77
2023/04/01 04:49:53;;;;;;;1.40;1.10;;;;;;;6.42;100.00;94817.50;5046506;28;20432;-77
2023/04/01 04:52:20;;;;;;;2.40;1.43;;;;;;;6.15;100.00;94760.56;5057319;28;20995;-78
2023/04/01 04:54:47;;;;;;;2.83;0.90;;;;;;;6.34;100.00;94794.78;5046888;28;20432;-77
2023/04/01 04:57:14;;;;;;;2.53;0.90;;;;;;;6.43;100.00;94802.50;5050214;28;20439;-78
2023/04/01 04:59:47;;;;;;;6.63;1.20;;;;;;;6.61;100.00;94835.22;5077401;28;20451;-78
2023/04/01 05:02:24;;;;;;;2.00;1.20;;;;;;;6.70;100.00;94858.69;5056423;28;20471;-78
2023/04/01 05:04:51;;;;;;;2.50;1.00;;;;;;;6.50;100.00;94824.44;5066272;28;20440;-78
2023/04/01 05:07:18;;;;;;;2.07;1.10;;;;;;;6.31;100.00;94800.72;5043585;28;20455;-78
2023/04/01 05:09:45;;;;;;;3.73;1.10;;;;;;;6.63;100.00;94853.25;5049002;28;20435;-77
2023/04/01 05:12:13;;;;;;;1.53;1.17;;;;;;;6.50;100.00;94844.66;5067268;28;20821;-78
2023/04/01 05:15:00;;;;;;;2.50;1.20;;;;;;;6.47;100.00;94840.09;5038660;28;20440;-78
2023/04/01 05:17:27;;;;;;;3.90;2.07;;;;;;;6.29;100.00;94812.66;5052030;28;20726;-78
2023/04/01 05:19:54;;;;;;;2.27;1.30;;;;;;;6.41;100.00;94842.22;5075157;28;20820;-77
2023/04/01 05:22:20;;;;;;;5.03;2.97;;;;;;;6.40;100.00;94839.91;5068014;28;20877;-78
2023/04/01 05:24:47;;;;;;;3.53;3.23;;;;;;;6.39;100.00;94838.38;5036909;28;20429;-78
2023/04/01 05:27:14;;;;;;;20.67;14.33;;;;;;;6.40;100.00;94848.53;5045380;28;20440;-78
2023/04/01 05:29:42;;;;;;;4.30;3.13;;;;;;;6.31;100.00;94823.56;5064189;28;20432;-77
2023/04/01 05:32:24;;;;;;;3.73;2.93;;;;;;;6.22;100.00;94810.56;5035764;28;20523;-77
2023/04/01 05:34:52;;;;;;;4.70;2.97;;;;;;;6.30;100.00;94827.28;5052264;28;20433;-77
2023/04/01 05:37:19;;;;;;;6.10;2.40;;;;;;;6.10;100.00;94802.75;5059642;28;20489;-77
2023/04/01 05:39:46;;;;;;;6.83;3.37;;;;;;;6.03;100.00;94792.84;5093787;28;20447;-77
2023/04/01 05:42:13;;;;;;;8.43;3.80;;;;;;;6.29;100.00;94834.41;5075147;28;20451;-77
2023/04/01 05:44:40;;;;;;;2.83;2.63;;;;;;;6.21;100.00;94822.19;5065556;28;20441;-77
2023/04/01 05:47:07;;;;;;;9.50;8.60;;;;;;;6.22;100.00;94810.56;5060073;28;20477;-77
2023/04/01 05:49:34;;;;;;;6.70;3.57;;;;;;;6.35;100.00;94827.78;5042984;28;20807;-77
2023/04/01 05:52:02;;;;;;;9.63;7.60;;;;;;;6.10;100.00;94798.28;5044842;28;20483;-77
2023/04/01 05:54:30;;;;;;;5.47;2.80;;;;;;;6.31;100.00;94826.94;5035918;28;20514;-77
2023/04/01 05:56:57;;;;;;;9.67;4.80;;;;;;;6.34;100.00;94828.91;5068134;28;20420;-77
2023/04/01 05:59:24;;;;;;;3.50;1.50;;;;;;;6.58;100.00;94859.53;5037738;28;20916;-77
2023/04/01 06:01:51;;;;;;;3.43;1.60;;;;;;;6.45;100.00;94861.44;5065810;28;20953;-78
2023/04/01 06:04:19;;;;;;;1.27;1.17;;;;;;;6.20;100.00;94831.16;5059720;28;20432;-77
2023/04/01 06:06:46;;;;;;;1.67;1.37;;;;;;;6.39;100.00;94851.50;5042243;28;20856;-77
2023/04/01 06:09:13;;;;;;;1.30;1.20;;;;;;;6.41;100.00;94862.44;5054050;28;20439;-77
2023/04/01 06:11:59;;;;;;;5.57;2.53;;;;;;;6.44;100.00;94870.41;5077021;28;20452;-77
2023/04/01 06:14:37;;;;;;;4.03;1.40;;;;;;;6.46;100.00;94862.97;5042846;28;20440;-77
2023/04/01 06:17:39;;;;;;;4.50;3.07;;;;;;;6.34;100.00;94849.13;5072676;28;20523;-77
2023/04/01 06:20:45;;;;;;;5.33;2.00;;;;;;;6.40;100.00;94845.91;5060366;28;20554;-77
2023/04/01 06:23:33;;;;;;;2.83;2.33;;;;;;;6.61;100.00;94858.06;5053285;28;20431;-77
2023/04/01 06:26:38;;;;;;;2.67;1.40;;;;;;;6.59;100.00;94871.53;5070800;28;20481;-78
2023/04/01 06:29:23;;;;;;;2.40;1.50;;;;;;;6.49;100.00;94857.03;5039883;28;20803;-78
2023/04/01 06:32:12;;;;;;;4.10;1.17;;;;;;;6.51;100.00;94872.44;5055972;28;20463;-77
2023/04/01 06:35:12;;;;;;;3.23;1.57;;;;;;;6.48;100.00;94857.38;5057723;28;20861;-78
2023/04/01 06:37:52;;;;;;;3.50;2.97;;;;;;;6.56;100.00;94860.97;5077389;28;20791;-78
2023/04/01 06:40:36;;;;;;;3.93;1.70;;;;;;;6.60;100.00;94872.31;5050343;28;20521;-77
2023/04/01 06:43:31;;;;;;;3.37;1.70;;;;;;;6.49;100.00;94861.53;5047111;28;20505;-77
2023/04/01 06:46:35;;;;;;;1.83;1.70;;;;;;;6.62;100.00;94870.88;5051597;28;20411;-77
2023/04/01 06:49:51;;;;;;;2.10;1.90;;;;;;;6.56;100.00;94860.97;5063337;28;20411;-78
2023/04/01 06:52:43;;;;;;;4.20;1.20;;;;;;;6.44;100.00;94838.16;5062511;28;20862;-78
2023/04/01 06:55:53;;;;;;;1.30;1.13;;;;;;;6.56;100.00;94843.34;5068807;28;20445;-78
2023/04/01 06:58:41;;;;;;;5.60;1.90;;;;;;;6.58;100.00;94856.13;5052022;28;20447;-78
2023/04/01 07:01:27;;;;;;;2.17;1.60;;;;;;;6.46;100.00;94830.69;5039920;28;20471;-78
2023/04/01 07:04:06;;;;;;;1.93;1.20;;;;;;;6.52;100.00;94832.72;5058441;28;20441;-77
2023/04/01 07:06:58;;;;;;;3.07;1.67;;;;;;;6.71;100.00;94858.34;5060503;28;20443;-77
2023/04/01 07:09:34;;;;;;;1.57;1.10;;;;;;;6.61;100.00;94835.22;5037994;28;20546;-78
2023/04/01 07:12:47;;;;;;;2.53;1.00;;;;;;;6.71;100.00;94847.84;5054205;28;20467;-77
2023/04/01 07:16:12;;;;;;;0.97;0.87;;;;;;;6.74;100.00;94855.06;5060848;28;20444;-78
2023/04/01 07:18:47;;;;;;;1.00;0.90;;;;;;;6.88;100.00;94870.41;5046087;28;20451;-78
2023/04/01 07:21:31;;;;;;;2.80;0.70;;;;;;;6.91;100.00;94863.69;5059433;28;20467;-78
2023/04/01 07:24:06;;;;;;;2.07;1.00;;;;;;;6.97;100.00;94867.63;5051863;28;20622;-77
2023/04/01 07:26:37;;;;;;;1.40;0.93;;;;;;;6.78;100.00;94836.75;5061624;28;20440;-78
2023/04/01 07:29:13;;;;;;;2.03;0.90;;;;;;;6.67;100.00;94817.34;5049694;28;20438;-78
2023/04/01 07:32:05;;;;;;;0.90;0.70;;;;;;;7.11;100.00;94863.47;5064319;28;20874;-78
2023/04/01 07:34:41;;;;;;;1.53;1.00;;;;;;;7.17;100.00;94844.78;5048971;28;20510;-78
2023/04/01 07:37:13;;;;;;;2.60;0.80;;;;;;;7.41;100.00;94876.16;5060287;28;20807;-78
2023/04/01 07:39:52;;;;;;;0.73;0.73;;;;;;;7.39;100.00;94870.47;5046426;28;20461;-78
2023/04/01 07:42:39;;;;;;;2.40;1.10;;;;;;;7.19;100.00;94853.09;5052643;28;20457;-78
2023/04/01 07:45:30;;;;;;;1.20;0.90;;;;;;;7.08;100.00;94837.09;5063519;28;20439;-78
2023/04/01 07:48:08;;;;;;;2.20;1.30;;;;;;;7.32;100.00;94886.06;5039888;28;20437;-79
2023/04/01 07:50:42;;;;;;;2.70;1.67;;;;;;;7.23;100.00;94848.72;5073302;28;20427;-78
2023/04/01 07:53:33;;;;;;;1.20;0.90;;;;;;;7.64;100.00;94889.44;5043076;28;20869;-78
2023/04/01 07:56:08;;;;;;;1.87;1.00;;;;;;;7.11;100.00;94842.44;5059384;28;20443;-78
2023/04/01 07:58:41;;;;;;;2.40;2.07;;;;;;;7.36;100.00;94887.72;5059646;28;20957;-78
2023/04/01 08:01:40;;;;;;;1.27;1.07;;;;;;;7.32;100.00;94889.47;5059045;28;20503;-78
2023/04/01 08:04:11;;;;;;;2.40;1.73;;;;;;;7.45;100.00;94902.53;5047149;28;20431;-77
2023/04/01 08:07:16;;;;;;;2.33;0.80;;;;;;;7.45;100.00;94903.28;5048516;28;20451;-78
2023/04/01 08:10:32;;;;;;;1.17;1.07;;;;;;;7.54;100.00;94903.88;5072611;28;20436;-78
2023/04/01 08:13:57;;;;;;;1.27;1.00;;;;;;;7.81;100.00;94896.97;5042164;28;20441;-78
2023/04/01 08:17:00;;;;;;;2.20;1.00;;;;;;;7.73;100.00;94882.13;5082346;28;20500;-78
2023/04/01 08:19:51;;;;;;;2.40;1.20;;;;;;;7.84;100.00;94888.38;5078954;28;20478;-78
2023/04/01 08:22:31;;;;;;;1.00;0.83;;;;;;;7.94;100.00;94892.34;5076991;28;20474;-78
2023/04/01 08:25:04;;;;;;;1.13;1.03;;;;;;;7.71;100.00;94861.41;5059018;28;20515;-78
2023/04/01 08:27:56;;;;;;;2.53;1.40;;;;;;;7.83;100.00;94878.97;5043439;28;20437;-78
2023/04/01 08:30:26;;;;;;;2.90;1.00;;;;;;;8.04;100.00;94904.22;5045872;28;20490;-78
2023/04/01 08:32:53;;;;;;;1.57;0.97;;;;;;;8.08;100.00;94905.03;5036290;28;20935;-78
2023/04/01 08:35:28;;;;;;;2.10;1.23;;;;;;;8.01;100.00;94905.63;5054618;28;20424;-78
2023/04/01 08:38:06;;;;;;;2.57;1.80;;;;;;;7.80;100.00;94879.66;5045488;28;20440;-78
2023/04/01 08:40:48;;;;;;;5.80;1.60;;;;;;;7.83;100.00;94875.56;5056451;28;20577;-78
2023/04/01 08:43:24;;;;;;;2.50;1.60;;;;;;;8.08;100.00;94902.41;5049914;28;20436;-78
2023/04/01 08:46:13;;;;;;;2.47;2.27;;;;;;;7.79;100.00;94862.34;5056039;28;20463;-78
2023/04/01 08:48:48;;;;;;;1.60;1.50;;;;;;;7.68;100.00;94832.41;5060272;28;20417;-78
2023/04/01 08:51:30;;;;;;;2.37;1.10;;;;;;;8.16;100.00;94906.72;5025051;28;20475;-78
2023/04/01 08:54:15;;;;;;;1.80;0.90;;;;;;;8.19;100.00;94906.03;5039381;28;20435;-78
2023/04/01 08:56:48;;;;;;;1.90;1.30;;;;;;;8.22;100.00;94902.69;5076283;28;20424;-78
2023/04/01 08:59:48;;;;;;;3.00;1.77;;;;;;;8.17;100.00;94868.75;5070197;28;20490;-78
2023/04/01 09:02:58;;;;;;;3.33;1.63;;;;;;;8.59;100.00;94901.19;5051395;28;20937;-78
2023/04/01 09:05:32;;;;;;;1.30;0.90;;;;;;;8.49;100.00;94901.00;5059507;28;20482;-78
2023/04/01 09:08:27;;;;;;;2.13;0.90;;;;;;;8.40;100.00;94910.97;5036985;28;20548;-78
2023/04/01 09:11:23;;;;;;;1.17;1.07;;;;;;;8.36;100.00;94881.19;5044974;28;20499;-78
2023/04/01 09:14:40;;;;;;;7.40;5.30;;;;;;;8.36;100.00;94903.00;5063942;28;20451;-77
2023/04/01 09:17:55;;;;;;;4.10;1.00;;;;;;;8.21;100.00;94883.50;5063722;28;21227;-78
2023/04/01 09:20:50;;;;;;;19.30;12.83;;;;;;;8.24;100.00;94895.22;5037020;28;20560;-78
2023/04/01 09:23:33;;;;;;;23.70;16.80;;;;;;;8.06;100.00;94858.00;5053385;28;20486;-78
2023/04/01 09:26:19;;;;;;;22.77;16.33;;;;;;;8.14;100.00;94872.81;5051178;28;20444;-78
2023/04/01 09:28:55;;;;;;;16.47;11.13;;;;;;;8.33;100.00;94906.31;5036338;28;20440;-78
2023/04/01 09:31:32;;;;;;;12.40;7.33;;;;;;;8.24;100.00;94898.59;5072651;28;20435;-78
2023/04/01 09:35:00;;;;;;;34.23;19.83;;;;;;;8.11;100.00;94868.25;5077029;28;20436;-78
2023/04/01 09:37:52;;;;;;;15.40;8.37;;;;;;;8.36;100.00;94902.25;5047083;28;20460;-78
2023/04/01 09:40:26;;;;;;;32.60;19.07;;;;;;;8.29;100.00;94902.84;5051642;28;20468;-78
2023/04/01 09:43:10;;;;;;;7.53;6.43;;;;;;;8.29;100.00;94905.47;5044330;28;20950;-78
2023/04/01 09:45:49;;;;;;;9.80;4.97;;;;;;;8.21;100.00;94911.69;5041711;28;20934;-78
2023/04/01 09:48:50;;;;;;;5.50;4.20;;;;;;;8.17;100.00;94903.75;5050334;28;20443;-77
2023/04/01 09:51:36;;;;;;;6.67;4.83;;;;;;;8.16;100.00;94906.72;5040058;28;20466;-78
2023/04/01 09:54:21;;;;;;;6.10;4.30;;;;;;;8.18;100.00;94913.16;5057513;28;20526;-78
2023/04/01 09:57:25;;;;;;;3.57;2.50;;;;;;;8.12;100.00;94909.25;5054758;28;20427;-77
2023/04/01 10:00:27;;;;;;;4.47;3.67;;;;;;;8.12;100.00;94909.25;5067705;28;20517;-77
2023/04/01 10:03:55;;;;;;;13.50;9.10;;;;;;;8.26;100.00;94914.03;5065209;28;20428;-77
2023/04/01 10:06:22;;;;;;;3.03;2.83;;;;;;;8.19;100.00;94914.69;4993412;28;20896;-77
2023/04/01 10:09:01;;;;;;;2.93;2.67;;;;;;;8.20;100.00;94912.81;5050141;28;20568;-77
2023/04/01 10:12:02;;;;;;;3.77;1.20;;;;;;;8.11;100.00;94913.00;5034800;28;20459;-76
2023/04/01 10:14:52;;;;;;;1.20;1.10;;;;;;;8.00;100.00;94910.13;5044367;28;20448;-76
2023/04/01 10:17:31;;;;;;;2.37;1.60;;;;;;;7.98;100.00;94904.47;5050671;28;20462;-77
2023/04/01 10:20:19;;;;;;;2.73;2.30;;;;;;;8.06;100.00;94909.88;5059864;28;20500;-77
2023/04/01 10:23:29;;;;;;;1.30;1.20;;;;;;;8.15;100.00;94918.34;5055705;28;20439;-77
2023/04/01 10:26:27;;;;;;;3.50;1.00;;;;;;;8.32;100.00;94910.03;5067334;28;20447;-76
2023/04/01 10:29:14;;;;;;;0.80;0.70;;;;;;;8.21;100.00;94907.19;5066410;28;20432;-77
2023/04/01 10:32:08;;;;;;;1.13;1.00;;;;;;;8.23;100.00;94920.78;5057597;28;20487;-77
2023/04/01 10:35:13;;;;;;;1.97;0.90;;;;;;;8.19;100.00;94909.41;5059814;28;20949;-76
2023/04/01 10:37:50;;;;;;;2.20;1.20;;;;;;;8.25;100.00;94915.16;5022094;28;20449;-77
2023/04/01 10:41:02;;;;;;;13.93;12.40;;;;;;;8.25;100.00;94886.19;5023761;28;20461;-77
2023/04/01 10:43:50;;;;;;;1.77;1.67;;;;;;;8.58;100.00;94914.72;5055967;28;20498;-77
2023/04/01 10:46:45;;;;;;;1.10;1.00;;;;;;;8.49;100.00;94911.53;5043341;28;20467;-77
2023/04/01 10:49:20;;;;;;;1.20;1.10;;;;;;;8.37;100.00;94909.03;5044675;28;20440;-77
2023/04/01 10:52:36;;;;;;;1.40;1.30;;;;;;;7.80;100.00;94828.91;5040958;28;20484;-77
2023/04/01 10:55:46;;;;;;;3.60;2.43;;;;;;;8.38;100.00;94897.38;5059739;28;20843;-77
2023/04/01 10:58:49;;;;;;;2.90;1.73;;;;;;;8.33;100.00;94901.03;5059213;28;20515;-77
2023/04/01 11:02:09;;;;;;;3.33;3.10;;;;;;;8.43;100.00;94903.16;5073941;28;20540;-77
2023/04/01 11:05:16;;;;;;;0.90;0.80;;;;;;;8.49;100.00;94895.72;5043393;28;20445;-77
2023/04/01 11:08:06;;;;;;;1.53;1.43;;;;;;;8.20;100.00;94868.06;5040294;28;20448;-77
2023/04/01 11:11:14;;;;;;;4.63;3.40;;;;;;;8.39;100.00;94901.53;5055841;28;20978;-77
2023/04/01 11:14:19;;;;;;;1.30;1.20;;;;;;;8.22;100.00;94895.56;5055815;28;20933;-77
2023/04/01 11:16:50;;;;;;;2.80;2.33;;;;;;;8.17;100.00;94902.97;5064497;28;20808;-77
2023/04/01 11:19:42;;;;;;;9.63;8.63;;;;;;;8.12;100.00;94901.34;5060113;28;20480;-77
2023/04/01 11:22:37;;;;;;;1.40;1.30;;;;;;;8.14;100.00;94893.88;5047071;28;20453;-77
2023/04/01 11:25:25;;;;;;;1.33;0.80;;;;;;;8.25;100.00;94897.50;5052011;28;20915;-77
2023/04/01 11:28:42;;;;;;;1.50;1.40;;;;;;;8.01;100.00;94874.06;5023864;28;20428;-77
2023/04/01 11:31:35;;;;;;;2.00;1.27;;;;;;;8.03;100.00;94900.81;5066535;28;20817;-77
2023/04/01 11:34:14;;;;;;;1.23;1.13;;;;;;;7.83;100.00;94893.97;5037583;28;20459;-78
2023/04/01 11:37:02;;;;;;;0.80;0.80;;;;;;;7.66;100.00;94901.16;5039061;28;20456;-78
2023/04/01 11:39:36;;;;;;;1.77;1.10;;;;;;;7.71;100.00;94894.84;5030171;28;20440;-78
2023/04/01 11:42:51;;;;;;;0.70;0.70;;;;;;;7.34;100.00;94863.59;5063357;28;20529;-77
2023/04/01 11:45:42;;;;;;;1.43;1.10;;;;;;;7.38;100.00;94874.22;5075346;28;20407;-77
2023/04/01 11:48:39;;;;;;;0.80;0.80;;;;;;;7.61;100.00;94896.16;5051976;28;20497;-77
2023/04/01 11:51:18;;;;;;;3.00;1.80;;;;;;;7.88;100.00;94897.13;5058489;28;20878;-76
2023/04/01 11:54:19;;;;;;;0.90;0.90;;;;;;;8.00;100.00;94896.22;5059337;28;20494;-76
2023/04/01 11:57:21;;;;;;;0.80;0.80;;;;;;;7.81;100.00;94869.88;5065153;28;20427;-76
2023/04/01 12:00:01;;;;;;;1.17;1.00;;;;;;;7.72;100.00;94855.06;5042474;28;20443;-76
2023/04/01 12:03:08;;;;;;;0.90;0.90;;;;;;;7.80;100.00;94865.75;5060567;28;20439;-76
2023/04/01 12:05:58;;;;;;;1.40;0.90;;;;;;;7.96;100.00;94890.13;5058163;28;20452;-76
2023/04/01 12:08:36;;;;;;;0.80;0.80;;;;;;;7.88;100.00;94851.59;5041088;28;20447;-76
2023/04/01 12:11:16;;;;;;;0.80;0.80;;;;;;;8.22;100.00;94903.44;5052756;28;20494;-76
2023/04/01 12:14:01;;;;;;;0.73;0.73;;;;;;;8.05;100.00;94909.13;5085864;28;20424;-76
2023/04/01 12:16:54;;;;;;;1.40;0.70;;;;;;;8.10;100.00;94910.72;5054375;28;20440;-76
2023/04/01 12:19:42;;;;;;;1.00;0.90;;;;;;;8.01;100.00;94903.00;5072392;28;20466;-76
2023/04/01 12:22:12;;;;;;;1.33;1.10;;;;;;;8.01;100.00;94910.91;5060193;28;20494;-76
2023/04/01 12:25:02;;;;;;;2.23;1.00;;;;;;;8.12;100.00;94913.75;5057625;28;20456;-76
2023/04/01 12:27:41;;;;;;;2.50;0.93;;;;;;;8.07;100.00;94909.53;5031051;28;20445;-76
2023/04/01 12:30:35;;;;;;;2.50;2.30;;;;;;;8.26;100.00;94909.53;5059953;28;20412;-77